Date,TemperatureHighF,TemperatureAvgF,TemperatureLowF,DewpointHighF,DewpointAvgF,DewpointLowF,HumidityHigh,HumidityAvg,HumidityLow,PressureMaxIn,PressureMinIn,WindSpeedMaxMPH,WindSpeedAvgMPH,GustSpeedMaxMPH,PrecipitationSumIn
2013-1-1,54,41,30,32,27,16,88,61,24,30.20,30.05,11,2,11,0.00
2013-1-2,61,45,32,32,26,15,89,56,17,30.08,29.94,9,1,9,0.00
2013-1-3,62,46,33,31,27,20,86,52,21,30.14,29.97,17,4,17,0.00
2013-1-4,58,47,40,29,27,22,62,46,27,30.24,30.13,15,4,15,0.00
2013-1-5,63,46,31,32,24,4,86,49,10,30.28,30.15,9,1,9,0.00
2013-1-6,66,50,34,30,17,3,67,34,10,30.17,29.92,17,3,17,0.00
2013-1-7,57,49,34,30,26,21,76,42,25,29.92,29.81,16,5,16,0.00
2013-1-8,61,46,32,30,24,15,81,46,17,30.08,29.88,11,1,11,0.00
2013-1-9,71,53,33,27,15,2,69,31,10,30.17,30.01,20,3,20,0.00
2013-1-10,68,56,41,36,14,4,51,22,10,30.03,29.79,24,6,24,0.00
2013-1-11,53,41,33,37,21,-2,93,51,14,30.06,29.89,20,4,20,0.04
2013-1-12,48,35,24,20,10,-6,73,41,10,30.07,29.95,11,2,11,0.00
2013-1-13,49,34,21,16,7,-9,68,37,10,30.09,29.96,11,2,11,0.00
2013-1-14,45,33,23,13,2,-12,62,31,10,30.17,30.01,18,3,18,0.00
2013-1-15,48,33,18,8,-2,-13,59,27,10,30.31,30.16,8,1,8,0.00
2013-1-16,60,41,24,13,3,-9,51,24,10,30.32,30.16,10,2,10,0.00
2013-1-17,71,53,33,16,9,-2,49,22,10,30.21,30.09,18,5,18,0.00
2013-1-18,75,58,44,22,11,3,39,17,10,30.20,30.06,18,6,18,0.00
2013-1-19,76,55,35,24,17,6,56,27,10,30.21,30.08,9,1,9,0.00
2013-1-20,79,56,38,28,20,10,60,30,10,30.14,29.99,11,1,11,0.00
2013-1-21,81,59,42,31,24,14,64,32,10,30.10,29.98,11,2,11,0.00
2013-1-22,83,60,42,34,27,16,66,34,10,30.16,30.04,8,1,8,0.00
2013-1-23,83,62,43,33,26,13,59,32,10,30.20,30.06,10,1,10,0.00
2013-1-24,65,60,55,53,42,29,82,54,31,30.23,30.13,6,1,6,0.05
2013-1-25,79,64,51,52,47,40,88,58,25,30.17,29.97,7,2,7,0.00
2013-1-26,70,62,56,60,53,46,97,76,44,29.99,29.90,19,4,19,0.59
2013-1-27,67,59,50,54,50,44,99,75,46,30.02,29.91,10,2,10,0.00
2013-1-28,58,51,44,50,40,29,83,66,48,30.00,29.91,20,6,20,0.07
2013-1-29,53,45,38,36,24,10,81,48,18,30.16,29.99,20,6,20,0.00
2013-1-30,59,45,32,30,22,4,80,46,11,30.30,30.16,10,2,10,0.00
2013-1-31,61,43,34,36,30,22,79,63,22,30.23,29.69,7,1,7,0.00
2013-2-1,74,52,33,36,27,11,89,49,10,29.81,29.71,9,1,9,0.00
2013-2-2,78,55,36,38,28,11,83,44,10,29.85,29.70,9,1,9,0.00
2013-2-3,71,59,51,39,34,16,62,41,14,29.75,29.57,10,2,10,0.00
2013-2-4,71,58,46,40,38,32,77,50,24,29.65,29.55,9,2,9,0.00
2013-2-5,76,58,42,42,39,29,85,52,19,29.64,29.52,14,2,14,0.00
2013-2-6,73,59,47,42,37,27,75,48,19,29.65,29.52,14,2,14,0.00
2013-2-7,72,57,43,40,31,9,76,44,10,29.72,29.57,9,1,9,0.00
2013-2-8,70,58,49,34,21,6,49,27,10,29.57,29.40,24,6,24,0.00
2013-2-9,54,47,38,37,27,16,92,50,23,29.64,29.42,15,4,15,0.05
2013-2-10,59,45,32,28,23,10,79,46,15,29.64,29.52,12,2,12,0.00
2013-2-11,54,39,32,37,30,21,95,72,28,29.76,29.56,20,3,20,0.20
2013-2-12,54,42,32,36,31,26,98,68,36,29.86,29.75,11,2,11,0.01
2013-2-13,62,46,32,31,23,4,85,49,10,29.80,29.67,8,2,8,0.00
2013-2-14,67,50,32,31,24,7,85,45,10,29.76,29.62,11,2,11,0.00
2013-2-15,71,50,40,36,28,11,75,51,10,29.81,29.72,9,1,9,0.00
2013-2-18,64,57,50,18,12,3,25,18,10,29.93,29.91,2,0,2,0.00
2013-2-19,71,59,44,31,15,4,41,21,10,29.93,29.71,21,6,21,0.00
2013-2-20,53,42,33,41,34,29,97,76,40,29.95,29.70,21,5,21,0.43
2013-2-21,54,44,33,38,34,30,98,70,40,30.02,29.91,10,2,10,0.18
2013-2-22,57,47,37,39,33,23,93,61,35,30.12,29.96,12,2,12,0.00
2013-2-23,67,50,34,34,26,6,86,48,10,30.11,29.83,12,1,12,0.00
2013-2-24,53,46,38,33,15,-7,76,36,10,30.08,29.79,24,6,24,0.00
2013-2-25,60,46,31,22,13,1,62,32,10,30.18,30.01,8,2,8,0.00
2013-2-26,64,46,31,24,17,2,69,41,10,30.03,29.94,17,2,17,0.00
2013-2-27,65,50,33,25,10,-3,67,26,10,30.17,30.06,11,3,11,0.00
2013-2-28,69,52,32,21,10,-2,59,23,10,30.28,30.16,15,3,15,0.00
2013-3-1,77,56,35,25,16,3,55,25,10,30.31,30.16,9,2,9,0.00
2013-3-2,86,63,40,28,21,10,57,25,10,30.28,30.08,13,2,13,0.00
2013-3-3,83,65,45,28,19,8,48,21,10,30.10,29.92,19,3,19,0.00
2013-3-4,74,66,54,33,20,6,46,19,10,30.07,29.88,21,5,21,0.00
2013-3-5,80,64,46,34,24,12,56,27,10,30.10,29.96,19,4,19,0.00
2013-3-6,84,68,53,34,25,13,48,24,10,30.03,29.88,11,2,11,0.00
2013-3-7,81,66,49,32,22,9,49,23,10,29.97,29.87,21,4,21,0.00
2013-3-8,68,59,45,49,36,22,72,43,20,29.96,29.77,31,9,31,0.04
2013-3-9,45,45,45,36,36,36,70,70,70,29.96,29.96,3,2,3,0.00
2013-3-15,95,76,54,30,22,10,34,15,10,30.05,29.90,18,4,18,0.00
2013-3-16,91,74,53,27,19,7,32,14,10,29.93,29.75,20,5,20,0.00
2013-3-17,85,70,55,22,14,3,19,11,10,29.93,29.81,24,5,24,0.00
2013-3-18,85,69,54,29,20,10,35,18,10,30.00,29.89,14,3,14,0.00
2013-3-19,82,69,54,30,22,12,38,19,10,30.04,29.93,17,3,17,0.00
2013-3-20,85,70,55,28,22,13,35,19,10,30.05,29.88,12,3,12,0.00
2013-3-21,79,69,56,30,23,16,34,19,10,29.88,29.74,11,3,11,0.00
2013-3-22,82,71,55,35,24,12,45,20,10,29.82,29.69,19,6,19,0.00
2013-3-23,77,65,52,33,19,0,41,20,10,29.99,29.81,17,5,17,0.00
2013-3-24,78,63,44,17,9,-3,26,12,10,30.01,29.87,14,4,14,0.00
2013-3-25,83,66,46,21,10,-3,19,11,10,30.01,29.89,14,3,14,0.00
2013-3-26,89,72,52,26,15,3,22,12,10,29.98,29.82,14,4,14,0.00
2013-3-27,87,72,55,24,14,4,19,11,10,30.00,29.88,18,5,18,0.00
2013-3-28,86,72,53,24,17,5,30,13,10,30.06,29.95,25,4,25,0.00
2013-3-29,89,73,56,25,19,7,28,14,10,30.10,29.97,13,3,13,0.00
2013-3-30,85,72,59,22,15,5,18,11,10,30.06,29.93,16,3,16,0.00
2013-3-31,88,71,52,29,21,9,40,17,10,30.05,29.89,17,3,17,0.00
2013-4-1,86,71,54,30,20,8,36,16,10,30.03,29.87,17,4,17,0.00
2013-4-2,80,67,52,22,15,7,30,14,10,29.98,29.87,17,4,17,0.00
2013-4-3,85,69,50,27,18,10,34,16,10,30.04,29.94,12,3,12,0.00
2013-4-4,92,74,53,28,21,12,31,15,10,30.08,29.90,19,3,19,0.00
2013-4-5,90,76,59,26,19,10,25,12,10,29.99,29.85,17,4,17,0.00
2013-4-6,88,74,57,32,24,11,38,17,10,30.00,29.82,14,4,14,0.00
2013-4-7,88,74,57,37,27,14,46,20,10,29.91,29.75,15,4,15,0.00
2013-4-8,80,66,48,47,26,11,94,30,10,29.65,29.44,27,12,27,0.37
2013-4-9,67,58,48,46,27,6,93,41,10,29.89,29.65,21,7,21,0.05
2013-4-10,70,60,46,32,23,10,56,28,10,30.00,29.88,21,4,21,0.00
2013-4-11,82,65,48,33,22,10,51,24,10,29.99,29.77,12,3,12,0.00
2013-4-12,84,68,53,24,18,11,30,16,10,29.84,29.75,14,3,14,0.00
2013-4-13,87,72,51,29,21,11,40,17,10,29.88,29.73,17,5,17,0.00
2013-4-14,86,74,58,32,24,17,32,17,10,29.83,29.69,21,6,21,0.00
2013-4-15,88,76,63,36,26,16,35,17,10,29.82,29.71,26,8,26,0.01
2013-4-16,86,74,62,37,24,14,32,17,10,29.84,29.72,23,8,23,0.01
2013-4-17,70,62,56,42,19,0,53,22,10,30.01,29.80,22,8,22,0.00
2013-4-18,73,60,45,13,7,-2,24,12,10,30.11,29.99,17,5,17,0.00
2013-4-19,84,66,42,21,12,1,28,13,10,30.14,29.93,12,3,12,0.00
2013-4-20,87,69,46,24,11,-6,20,11,10,29.99,29.88,19,3,19,0.00
2013-4-21,92,74,52,28,17,3,24,12,10,30.06,29.91,13,3,13,0.00
2013-4-22,94,77,54,29,20,5,27,12,10,29.99,29.79,16,4,16,0.00
2013-4-23,91,77,60,27,17,4,12,10,10,29.90,29.79,19,4,19,0.00
2013-4-24,92,79,62,28,19,8,17,11,10,29.95,29.82,16,5,16,0.00
2013-4-25,85,76,63,27,18,10,20,12,10,30.04,29.87,28,6,28,0.00
2013-4-26,89,73,53,26,20,10,32,15,10,30.11,29.99,13,3,13,0.00
2013-4-27,93,77,56,28,21,10,28,13,10,30.08,29.90,12,3,12,0.00
2013-4-28,97,80,58,31,21,9,23,12,10,29.94,29.77,15,3,15,0.00
2013-4-29,99,82,59,33,21,4,15,10,10,29.87,29.69,26,4,26,0.00
2013-4-30,97,82,64,32,21,9,16,11,10,29.84,29.72,26,4,26,0.00
2013-5-1,93,80,64,29,20,10,18,11,10,30.00,29.83,14,4,14,0.00
2013-5-2,93,79,61,29,20,-7,23,11,10,30.11,29.97,25,6,25,0.02
2013-5-3,90,76,62,26,16,6,12,10,10,30.08,29.81,49,8,49,0.01
2013-5-4,93,80,65,28,19,7,10,10,10,29.86,29.72,24,5,24,0.00
2013-5-5,90,80,67,45,21,10,46,12,10,29.96,29.78,22,8,22,0.00
2013-5-6,86,74,61,53,35,19,70,30,10,29.98,29.88,17,6,17,0.02
2013-5-7,85,73,61,43,31,15,41,24,10,30.00,29.86,20,6,20,0.00
2013-5-8,84,71,59,41,32,18,51,27,10,30.04,29.90,15,4,15,0.01
2013-5-10,90,80,66,35,26,19,32,15,10,30.05,29.92,22,5,22,0.00
2013-5-11,89,78,61,36,26,16,37,17,10,30.10,29.99,22,7,22,0.00
2013-5-12,93,81,69,33,26,17,24,14,10,30.15,29.95,24,8,24,0.00
2013-5-13,97,85,68,31,23,13,20,11,10,30.08,29.91,20,6,20,0.00
2013-5-14,99,87,73,38,26,16,28,11,10,30.00,29.84,17,5,17,0.00
2013-5-15,99,86,68,34,27,17,28,13,10,30.01,29.84,21,6,21,0.00
2013-5-16,99,85,67,33,25,16,22,12,10,29.96,29.78,21,4,21,0.00
2013-5-17,96,83,69,30,24,15,20,12,10,29.93,29.81,21,6,21,0.00
2013-5-18,93,81,67,35,23,13,23,12,10,29.95,29.84,20,5,20,0.00
2013-5-19,93,80,65,43,30,18,39,19,10,29.94,29.80,17,4,17,0.00
2013-5-20,94,81,64,35,27,14,34,15,10,29.93,29.81,19,5,19,0.00
2013-5-21,97,78,61,32,18,7,18,11,10,29.93,29.78,13,3,13,0.00
2013-5-22,101,84,63,34,23,8,19,10,10,29.85,29.69,19,4,19,0.00
2013-5-23,99,86,69,33,25,14,21,11,10,29.89,29.77,22,6,22,0.00
2013-5-24,99,85,68,37,28,15,26,13,10,29.95,29.83,17,5,17,0.00
2013-5-25,98,82,68,32,25,14,24,13,10,29.97,29.86,18,4,18,0.00
2013-5-26,97,82,64,31,23,11,21,12,10,29.99,29.87,23,4,23,0.00
2013-5-27,99,82,61,33,21,6,14,10,10,29.93,29.74,17,4,17,0.00
2013-5-28,96,82,64,30,21,8,16,10,10,29.80,29.64,18,5,18,0.00
2013-5-29,96,78,67,48,28,-15,33,17,10,29.80,29.68,14,3,14,0.00
2013-5-30,99,86,72,55,40,26,48,24,10,29.88,29.76,19,5,19,0.00
2013-5-31,100,89,75,58,39,22,56,23,10,29.91,29.79,17,4,17,0.00
2013-6-1,107,91,69,39,32,20,32,14,10,29.88,29.71,12,3,12,0.00
2013-6-2,107,92,74,39,33,23,28,13,10,29.85,29.69,31,4,31,0.00
2013-6-3,103,91,74,36,30,18,21,12,10,29.88,29.76,20,5,20,0.00
2013-6-4,102,90,72,37,30,19,28,12,10,29.90,29.79,17,4,17,0.00
2013-6-5,102,88,70,35,28,17,24,12,10,29.93,29.78,17,3,17,0.00
2013-6-6,105,89,68,38,27,12,18,11,10,29.87,29.73,13,4,13,0.00
2013-6-7,108,93,71,40,30,16,22,11,10,29.85,29.67,14,4,14,0.00
2013-6-8,106,92,73,38,28,15,14,10,10,29.88,29.77,17,5,17,0.00
2013-6-9,106,92,72,38,31,20,27,12,10,29.94,29.80,16,4,16,0.00
2013-6-10,109,93,72,40,31,16,22,11,10,29.94,29.80,20,4,20,0.00
2013-6-11,108,94,74,40,30,17,16,10,10,29.93,29.81,16,4,16,0.00
2013-6-12,108,92,74,40,28,17,15,10,10,29.98,29.83,19,4,19,0.00
2013-6-13,105,92,78,45,36,25,27,15,10,29.96,29.80,11,5,11,0.00
2013-6-14,103,85,78,54,47,29,42,28,10,29.91,29.75,14,3,14,0.00
2013-6-15,100,84,78,52,46,37,39,28,14,29.93,29.85,13,2,13,0.00
2013-6-16,106,95,76,57,35,22,52,14,10,29.97,29.83,14,4,14,0.00
2013-6-17,105,95,83,37,30,21,10,10,10,29.97,29.81,14,5,14,0.00
2013-6-18,107,97,82,39,31,20,10,10,10,29.81,29.76,14,5,14,0.00
2013-6-21,79,78,77,34,32,29,20,18,16,29.86,29.85,3,1,3,0.00
2013-6-22,104,91,72,37,29,19,19,11,10,29.92,29.75,14,4,14,0.00
2013-6-23,103,90,74,36,27,16,15,10,10,29.88,29.73,14,6,14,0.00
2013-6-24,102,89,74,36,27,16,16,11,10,29.90,29.79,17,5,17,0.01
2013-6-25,104,92,73,37,31,20,22,12,10,29.98,29.85,10,4,10,0.00
2013-6-26,104,90,71,37,27,16,14,10,10,30.04,29.91,9,2,9,0.00
2013-6-27,105,92,75,38,30,16,23,12,10,30.08,29.92,28,6,28,0.01
2013-6-28,111,95,76,42,33,20,21,11,10,29.97,29.82,9,3,9,0.00
2013-6-29,112,105,83,43,38,24,18,10,10,29.91,29.76,16,6,16,0.00
2013-6-30,112,101,87,46,40,32,24,13,10,29.88,29.71,15,6,15,0.00
2013-7-1,88,88,87,60,60,59,40,39,37,29.93,29.92,6,3,6,0.04
2013-7-3,106,94,80,56,43,31,44,21,10,29.94,29.72,13,6,13,0.00
2013-7-4,106,96,84,58,47,35,42,22,10,29.88,29.73,12,6,12,0.00
2013-7-5,102,87,76,72,62,51,86,48,19,29.90,29.77,24,6,24,0.07
2013-7-6,106,90,75,69,58,40,80,40,12,29.87,29.71,10,4,10,0.00
2013-7-7,110,92,81,65,56,37,58,33,10,29.86,29.75,10,4,10,0.00
2013-7-8,107,96,86,61,51,36,43,25,10,29.94,29.83,14,5,14,0.00
2013-7-9,100,91,81,68,62,55,62,40,23,30.05,29.88,13,6,13,0.00
2013-7-10,101,85,75,73,67,59,83,57,26,30.02,29.88,23,4,23,0.07
2013-7-11,95,83,74,74,68,64,89,64,36,30.00,29.88,11,4,13,0.08
2013-7-12,95,85,75,72,66,55,88,56,27,29.99,29.85,11,4,14,0.15
2013-7-13,100,89,78,68,61,50,72,43,19,29.98,29.84,14,4,16,0.00
2013-7-14,104,92,83,64,57,48,53,33,16,29.95,29.80,12,5,14,0.00
2013-7-15,103,89,80,69,62,49,69,44,17,29.89,29.75,17,5,28,0.24
2013-7-16,91,82,77,70,66,62,79,60,39,30.03,29.88,15,8,22,0.01
2013-7-17,100,88,76,69,58,44,79,44,16,30.04,29.89,17,6,20,0.00
2013-7-18,98,89,81,61,54,44,44,32,16,30.01,29.85,18,9,18,0.00
2013-7-19,93,86,81,67,60,56,59,42,29,29.96,29.82,11,4,11,0.00
2013-7-20,95,81,72,72,68,65,95,67,37,29.93,29.80,20,4,20,0.38
2013-7-21,93,84,76,72,67,60,87,61,34,29.96,29.86,11,5,11,0.00
2013-7-22,96,89,76,70,63,57,79,45,28,30.01,29.90,19,5,19,0.00
2013-7-23,98,88,76,66,60,55,65,41,24,30.02,29.87,13,4,17,0.00
2013-7-24,94,86,78,74,64,60,87,50,34,29.96,29.85,11,3,25,0.35
2013-7-25,94,84,78,73,68,65,81,61,41,30.02,29.93,12,3,14,0.00
2013-7-26,99,82,75,73,70,60,85,70,28,30.11,30.00,15,3,15,0.56
2013-7-27,97,85,76,72,67,60,84,58,31,30.04,29.87,16,3,16,0.00
2013-7-28,102,90,76,69,52,34,73,35,10,29.92,29.79,14,4,14,0.00
2013-7-29,102,90,75,53,42,32,44,21,10,30.02,29.90,14,3,17,0.00
2013-7-30,104,92,78,58,47,35,51,24,10,30.11,29.97,12,3,16,0.00
2013-7-31,105,92,82,60,50,34,45,26,10,30.06,29.93,16,3,16,0.00
2013-8-1,94,88,85,64,59,54,50,39,26,30.00,29.91,21,5,21,0.00
2013-8-2,96,86,80,68,62,58,57,45,31,29.98,29.91,13,4,15,0.00
2013-8-3,86,79,76,63,62,58,62,56,45,30.02,29.95,11,4,12,0.00
2013-8-17,109,94,81,61,50,34,50,27,10,29.99,29.81,11,4,11,0.02
2013-8-18,108,92,85,56,48,36,37,25,10,29.99,29.89,11,4,11,0.00
2013-8-19,106,93,82,58,49,34,42,25,10,29.98,29.84,11,3,11,0.00
2013-8-20,106,90,83,64,56,39,47,34,12,29.98,29.84,15,6,15,0.00
2013-8-21,99,88,79,62,56,46,56,36,17,29.97,29.87,13,4,13,0.00
2013-8-22,104,88,79,66,56,39,63,38,12,29.98,29.82,17,4,17,0.01
2013-8-23,102,88,74,65,56,43,65,37,14,29.95,29.79,19,4,19,0.00
2013-8-24,88,84,74,66,60,59,76,47,37,29.98,29.91,18,8,19,0.00
2013-8-25,91,85,76,74,64,59,94,54,37,30.00,29.92,11,6,13,0.09
2013-8-26,101,84,74,75,68,51,96,65,20,29.99,29.83,17,4,17,0.00
2013-9-4,103,89,72,64,50,34,73,35,10,29.99,29.86,14,3,14,0.00
2013-9-5,105,92,75,58,44,32,57,23,10,29.97,29.86,14,5,14,0.00
2013-9-6,102,88,79,64,54,40,56,33,12,29.98,29.85,11,3,11,0.15
2013-9-7,89,82,74,67,63,59,77,55,36,30.00,29.87,13,5,13,0.00
2013-9-8,86,79,74,70,66,62,84,66,44,29.91,29.81,11,5,11,0.04
2013-9-9,87,77,70,70,68,65,99,76,50,29.86,29.75,8,3,8,0.25
2013-9-10,89,78,68,70,62,54,99,63,30,29.94,29.84,11,4,11,0.09
2013-9-11,93,81,69,66,58,48,87,51,24,30.00,29.88,19,4,19,0.00
2013-9-12,98,84,70,64,55,43,72,42,16,29.92,29.77,14,4,14,0.00
2013-9-13,100,88,75,66,56,32,71,40,10,29.83,29.67,15,4,15,0.00
2013-9-14,101,89,78,64,54,35,61,34,11,29.78,29.68,18,5,19,0.00
2013-9-15,103,89,76,60,52,34,58,33,10,29.83,29.74,12,4,14,0.00
2013-9-16,103,92,81,59,52,33,46,29,10,29.88,29.76,19,7,19,0.00
2013-9-17,104,91,82,59,52,34,45,30,10,29.85,29.70,17,6,17,0.00
2013-9-18,103,90,76,56,39,25,48,20,10,29.83,29.69,11,3,11,0.00
2013-9-19,101,88,74,51,37,23,44,20,10,29.84,29.71,9,4,9,0.00
2013-9-20,102,86,71,56,41,31,40,23,10,29.88,29.77,14,4,14,0.00
2013-9-21,98,88,77,58,51,40,50,31,14,29.89,29.70,13,6,13,0.02
2013-9-22,94,84,74,63,50,26,57,33,13,29.80,29.67,17,7,17,0.01
2013-9-23,94,84,62,39,31,23,41,16,10,29.91,29.80,10,4,10,0.00
2013-10-4,88,75,61,44,32,11,51,24,10,29.99,29.83,14,4,14,0.00
2013-10-5,85,71,55,22,15,5,25,12,10,30.11,29.99,10,4,10,0.00
2013-10-6,92,73,50,27,17,1,25,12,10,30.11,29.98,11,4,11,0.00
2013-10-7,96,80,67,30,19,9,11,10,10,30.03,29.88,13,5,13,0.00
2013-10-8,91,76,62,32,24,13,31,16,10,29.93,29.79,11,3,11,0.00
2013-10-9,88,77,65,42,28,19,30,18,10,29.82,29.69,20,8,20,0.01
2013-10-10,72,63,57,53,46,36,73,55,27,29.96,29.76,20,6,20,0.00
2013-10-11,57,56,54,44,44,43,68,64,62,29.95,29.94,3,1,4,0.00
2013-10-12,87,70,50,37,30,20,56,28,10,29.96,29.83,7,2,7,0.00
2013-10-13,90,73,56,41,32,21,47,26,10,29.99,29.87,17,5,17,0.00
2013-10-14,85,71,56,45,34,21,64,31,10,30.04,29.90,8,3,8,0.00
2013-10-15,84,70,55,38,27,14,50,24,10,29.96,29.84,10,4,10,0.00
2013-10-16,82,70,50,27,16,5,40,14,10,30.06,29.96,8,3,11,0.00
2013-10-17,83,65,44,21,15,8,38,16,10,30.06,29.89,9,2,11,0.00
2013-10-18,58,51,46,20,17,12,35,26,17,30.01,29.93,6,1,7,0.00
2013-10-27,96,75,57,30,23,12,33,16,10,30.00,29.79,11,4,11,0.00
2013-10-28,85,70,58,35,26,17,38,21,10,29.92,29.82,13,6,13,0.00
2013-10-29,83,70,58,38,28,19,45,24,10,29.94,29.82,19,7,19,0.00
2013-10-30,76,61,49,38,32,23,62,38,17,30.03,29.90,11,4,11,0.00
2013-10-31,82,59,41,30,23,10,60,30,10,30.10,29.98,8,2,8,0.00
2013-11-1,88,62,41,25,20,9,45,23,10,30.14,30.00,5,2,5,0.00
2013-11-2,92,70,50,54,22,7,78,21,10,30.03,29.85,14,4,14,0.09
2013-11-3,83,69,59,54,46,34,82,49,19,29.95,29.75,16,4,16,0.19
2013-11-4,83,67,54,54,44,36,67,47,19,29.84,29.70,13,5,16,0.00
2013-11-5,72,62,52,48,44,36,76,52,29,30.10,29.84,11,3,11,0.00
2013-11-6,77,61,45,42,23,5,74,32,10,30.22,30.10,8,3,11,0.00
2013-11-7,84,68,54,23,12,-2,20,11,10,30.18,30.01,21,7,26,0.00
2013-11-8,84,69,53,34,26,18,44,23,10,30.08,29.93,10,3,10,0.09
2013-11-9,84,67,50,35,30,24,51,29,11,30.10,29.98,8,2,9,0.00
2013-11-10,86,68,49,39,31,21,63,30,10,30.12,29.98,11,3,11,0.00
2013-11-11,88,66,50,38,33,22,57,33,10,30.08,29.96,8,2,8,0.00
2013-11-12,87,71,54,40,35,21,53,30,11,30.16,30.06,21,8,26,0.00
2013-11-13,81,70,64,43,41,38,46,35,22,30.14,29.97,21,8,23,0.00
2013-11-14,82,68,54,44,40,33,63,39,19,30.02,29.85,9,3,11,0.00
2013-11-15,78,67,55,54,45,36,67,46,29,29.85,29.65,14,4,17,0.00
2013-11-16,78,67,58,53,44,18,77,47,11,29.89,29.72,15,6,16,0.00
2013-11-17,77,65,53,49,46,42,79,53,31,30.04,29.89,13,3,14,0.00
2013-11-18,79,66,53,48,45,40,75,50,25,30.06,29.94,9,3,10,0.00
2013-11-19,80,64,48,45,38,18,72,44,10,30.00,29.83,8,2,11,0.00
2013-11-20,74,62,51,42,37,32,58,43,22,29.89,29.81,8,2,11,0.00
2013-11-21,76,65,54,56,43,35,90,48,25,29.93,29.84,8,3,13,0.01
2013-11-22,64,55,48,59,52,47,99,90,71,29.95,29.79,14,5,14,0.79
2013-11-23,54,50,47,51,48,46,99,93,79,30.03,29.94,12,4,13,1.03
2013-11-24,49,49,49,48,48,48,94,94,94,30.03,30.03,2,2,2,0.00
2013-12-8,60,53,46,43,39,31,74,60,45,30.07,29.97,9,4,9,0.00
2013-12-9,51,43,35,30,20,12,62,41,20,30.23,30.03,9,3,13,0.00
2013-12-10,63,45,31,29,23,9,81,48,12,30.22,30.04,6,2,8,0.00
2013-12-11,74,53,36,39,31,24,79,48,22,30.14,30.06,10,3,13,0.00
2013-12-12,74,60,47,41,33,27,62,36,26,30.13,30.00,17,6,21,0.00
2013-12-13,64,50,38,37,33,27,84,55,26,30.14,30.04,8,2,8,0.00
2013-12-14,64,49,35,35,30,19,87,54,18,30.24,30.11,10,2,10,0.00
2013-12-15,44,42,42,30,30,29,63,60,57,30.23,30.22,3,2,4,0.00
2013-12-16,62,53,47,34,32,28,61,45,28,30.16,30.11,3,1,3,0.00
2013-12-17,82,58,39,37,30,16,76,44,10,30.19,30.03,11,1,11,0.00
2013-12-18,81,64,52,34,23,14,42,23,10,30.06,29.83,14,3,14,0.00
2013-12-19,72,60,48,44,25,10,70,30,10,29.85,29.68,18,6,18,0.00
2013-12-20,56,49,44,46,42,36,99,77,52,29.82,29.63,16,5,16,0.28
2013-12-21,55,49,44,44,40,34,92,74,46,30.02,29.80,17,3,17,0.01
2013-12-22,44,42,40,40,39,38,94,91,87,30.05,30.01,2,0,2,0.00